Time;durP1;ratioP1;P1;durP2;ratioP2;P2;SDS_P1;SDS_P2;PMS_P1;PMS_P2;Temp;Humidity;BMP_temperature;BMP_pressure;BME280_temperature;BME280_humidity;BME280_pressure;Samples;Min_cycle;Max_cycle;Signal;HPM_P1;HPM_P2
2021/08/09 00:02:25;;;;;;;20.62;11.00;;;;;;;22.43;89.94;99744.27;1770795;81;21275;-76
2021/08/09 00:05:32;;;;;;;24.18;11.30;;;;;;;22.40;90.11;99751.80;1770644;80;21734;-76
2021/08/09 00:08:38;;;;;;;19.82;10.23;;;;;;;22.37;90.25;99748.14;1770736;80;21745;-85
2021/08/09 00:11:44;;;;;;;20.60;11.68;;;;;;;22.34;90.32;99745.88;1771197;81;21765;-76
2021/08/09 00:14:49;;;;;;;21.10;11.65;;;;;;;22.28;90.54;99739.43;1772052;81;21299;-76
2021/08/09 00:17:56;;;;;;;30.50;12.47;;;;;;;22.24;90.76;99738.84;1770789;80;21253;-86
2021/08/09 00:21:01;;;;;;;30.30;12.33;;;;;;;22.19;90.99;99726.55;1771616;81;21386;-85
2021/08/09 00:24:08;;;;;;;22.80;12.75;;;;;;;22.14;91.27;99732.08;1770768;80;21762;-75
2021/08/09 00:27:13;;;;;;;23.65;12.90;;;;;;;22.11;91.45;99738.70;1770923;81;21204;-76
2021/08/09 00:30:21;;;;;;;20.97;12.88;;;;;;;22.08;91.58;99741.48;1772026;81;21272;-77
2021/08/09 00:33:27;;;;;;;31.35;12.23;;;;;;;22.06;91.80;99738.10;1770825;80;21714;-77
2021/08/09 00:36:35;;;;;;;19.23;13.20;;;;;;;22.04;91.86;99740.33;1771190;81;21288;-86
2021/08/09 00:39:41;;;;;;;24.00;13.08;;;;;;;22.04;91.97;99745.05;1770688;80;21182;-87
2021/08/09 00:42:46;;;;;;;18.17;12.23;;;;;;;22.03;91.95;99743.39;1770912;80;21720;-87
2021/08/09 00:45:52;;;;;;;23.05;12.65;;;;;;;22.01;91.94;99743.63;1771773;81;21323;-87
2021/08/09 00:48:59;;;;;;;20.82;13.22;;;;;;;22.01;91.97;99745.02;1771342;81;21308;-87
2021/08/09 00:52:06;;;;;;;23.57;12.75;;;;;;;21.98;92.11;99745.57;1770792;81;21299;-77
2021/08/09 00:55:13;;;;;;;32.65;12.73;;;;;;;21.97;92.27;99749.44;1770558;80;21169;-87
2021/08/09 00:58:18;;;;;;;38.00;13.95;;;;;;;21.95;92.39;99744.14;1783391;80;23210;-83
2021/08/09 01:01:25;;;;;;;23.20;12.37;;;;;;;21.93;92.40;99745.53;1785110;80;21347;-77
2021/08/09 01:04:31;;;;;;;21.07;12.95;;;;;;;21.91;92.49;99745.77;1784946;80;21877;-87
2021/08/09 01:07:42;;;;;;;28.83;13.22;;;;;;;21.89;92.52;99741.59;1785846;80;21733;-77
2021/08/09 01:10:54;;;;;;;;;;;;;;;21.86;92.58;99737.38;1786943;80;21180;-86
2021/08/09 01:14:35;;;;;;;23.77;13.03;;;;;;;21.84;92.63;99745.72;1785971;80;20637;-77
2021/08/09 01:17:45;;;;;;;23.20;12.28;;;;;;;21.78;92.88;99746.20;1785887;80;21806;-77
2021/08/09 01:20:56;;;;;;;24.82;12.40;;;;;;;21.77;92.93;99747.31;1785948;80;21176;-77
2021/08/09 01:24:10;;;;;;;25.52;13.15;;;;;;;21.77;93.02;99741.74;1785984;80;21268;-87
2021/08/09 01:27:38;;;;;;;25.17;12.28;;;;;;;21.76;93.09;99737.84;1785936;80;21161;-87
2021/08/09 01:30:45;;;;;;;19.27;12.00;;;;;;;21.74;93.16;99738.64;1785787;80;21307;-87
2021/08/09 01:33:53;;;;;;;22.13;12.58;;;;;;;21.68;93.32;99738.59;1785910;80;21300;-87
2021/08/09 01:37:00;;;;;;;20.97;11.93;;;;;;;21.65;93.50;99737.75;1785952;80;21335;-87
2021/08/09 01:40:06;;;;;;;20.02;12.00;;;;;;;21.64;93.62;99740.77;1785778;80;21173;-87
2021/08/09 01:43:12;;;;;;;22.22;12.88;;;;;;;21.63;93.73;99744.11;1786020;80;21149;-86
2021/08/09 01:46:18;;;;;;;17.90;11.60;;;;;;;21.62;93.84;99739.66;1785965;80;21299;-87
2021/08/09 01:49:23;;;;;;;23.27;12.03;;;;;;;21.60;93.91;99741.87;1785632;80;21303;-77
2021/08/09 01:52:28;;;;;;;20.75;13.22;;;;;;;21.59;93.93;99733.77;1785921;80;21185;-86
2021/08/09 01:55:38;;;;;;;18.57;11.27;;;;;;;21.56;93.99;99728.19;1786101;80;21753;-77
2021/08/09 01:58:44;;;;;;;24.52;12.10;;;;;;;21.54;94.11;99727.59;1784368;80;21187;-86
2021/08/09 02:01:50;;;;;;;21.62;12.50;;;;;;;21.49;94.30;99728.94;1785942;80;21168;-77
2021/08/09 02:04:56;;;;;;;15.58;11.45;;;;;;;21.47;94.45;99729.77;1785874;80;21299;-77
2021/08/09 02:08:03;;;;;;;23.32;11.65;;;;;;;21.44;94.59;99724.71;1786044;80;21153;-86
2021/08/09 02:11:36;;;;;;;18.92;11.73;;;;;;;21.41;94.71;99725.26;1784130;80;21201;-77
2021/08/09 02:14:50;;;;;;;22.32;12.82;;;;;;;21.37;94.88;99729.66;1785781;80;21657;-77
2021/08/09 02:18:05;;;;;;;27.80;11.63;;;;;;;21.32;95.15;99725.43;1785780;80;21264;-76
2021/08/09 02:21:13;;;;;;;23.52;13.00;;;;;;;21.28;95.44;99733.97;1784296;80;21284;-77
2021/08/09 02:24:21;;;;;;;21.87;13.93;;;;;;;21.25;95.72;99730.31;1785924;80;21303;-77
2021/08/09 02:27:27;;;;;;;28.07;12.93;;;;;;;21.20;95.97;99729.70;1785847;80;21235;-77
2021/08/09 02:30:31;;;;;;;15.70;12.95;;;;;;;21.17;96.18;99730.20;1785821;80;21182;-77
2021/08/09 02:33:36;;;;;;;20.08;12.13;;;;;;;21.12;96.40;99733.77;1785979;80;21552;-85
2021/08/09 02:36:41;;;;;;;23.52;14.25;;;;;;;21.09;96.79;99730.69;1772400;80;21734;-77
2021/08/09 02:39:47;;;;;;;35.85;22.52;;;;;;;21.07;97.01;99736.48;1784241;80;21188;-87
2021/08/09 02:42:52;;;;;;;41.88;22.87;;;;;;;21.07;97.25;99740.66;1785995;80;21260;-77
2021/08/09 02:45:56;;;;;;;56.48;29.57;;;;;;;21.06;97.38;99738.14;1785845;80;21189;-87
2021/08/09 02:49:02;;;;;;;67.62;36.63;;;;;;;21.05;97.43;99744.27;1785950;80;21260;-77
2021/08/09 02:52:10;;;;;;;53.40;28.67;;;;;;;21.07;97.43;99742.05;1785956;80;21153;-86
2021/08/09 02:55:16;;;;;;;34.78;18.25;;;;;;;21.09;97.37;99746.81;1785719;80;21146;-86
2021/08/09 02:58:22;;;;;;;30.52;15.30;;;;;;;21.14;97.19;99753.83;1785868;80;21774;-77
2021/08/09 03:01:28;;;;;;;20.32;12.15;;;;;;;21.18;96.90;99749.98;1791174;80;21754;-86
2021/08/09 03:04:33;;;;;;;20.25;12.28;;;;;;;21.21;96.65;99748.06;1785656;80;21153;-85
2021/08/09 03:07:38;;;;;;;16.23;10.98;;;;;;;21.28;96.44;99754.28;1785741;80;21675;-77
2021/08/09 03:10:45;;;;;;;18.92;11.83;;;;;;;21.38;96.01;99756.37;1790580;80;21212;-86
2021/08/09 03:13:56;;;;;;;19.65;10.32;;;;;;;21.49;95.40;99758.15;1785837;80;21662;-86
2021/08/09 03:17:00;;;;;;;;;;;;;;;21.62;94.75;99767.48;1788608;80;21178;-76
2021/08/09 03:20:05;;;;;;;21.52;11.48;;;;;;;21.73;93.90;99760.62;1785686;80;20607;-86
2021/08/09 03:23:10;;;;;;;21.48;11.33;;;;;;;21.81;93.22;99760.16;1785934;80;21153;-76
2021/08/09 03:26:15;;;;;;;15.93;10.82;;;;;;;21.90;92.64;99755.23;1785841;80;21762;-86
2021/08/09 03:29:21;;;;;;;19.45;10.55;;;;;;;22.02;91.95;99755.08;1786022;80;21160;-85
2021/08/09 03:32:26;;;;;;;21.87;11.22;;;;;;;22.13;91.29;99759.65;1785874;80;21236;-84
2021/08/09 03:35:31;;;;;;;21.57;10.23;;;;;;;22.27;90.67;99761.99;1785877;80;21287;-76
2021/08/09 03:38:38;;;;;;;21.75;10.65;;;;;;;22.44;89.72;99764.05;1785912;80;21256;-76
2021/08/09 03:41:44;;;;;;;16.70;10.20;;;;;;;22.61;88.86;99764.73;1784851;80;21856;-85
2021/08/09 03:44:49;;;;;;;23.02;11.12;;;;;;;22.78;87.71;99770.71;1785639;80;21204;-76
2021/08/09 03:47:54;;;;;;;16.95;10.75;;;;;;;22.94;86.90;99773.33;1785844;80;21264;-86
2021/08/09 03:51:00;;;;;;;20.52;10.55;;;;;;;23.12;85.68;99772.59;1785854;80;21232;-77
2021/08/09 03:54:05;;;;;;;20.85;11.40;;;;;;;23.23;84.47;99771.52;1786031;80;21798;-77
2021/08/09 03:57:09;;;;;;;17.37;10.80;;;;;;;23.29;83.81;99772.36;1785919;80;21300;-86
2021/08/09 04:00:17;;;;;;;15.23;10.78;;;;;;;23.38;83.45;99777.17;1782638;80;21133;-76
2021/08/09 04:03:22;;;;;;;17.75;11.48;;;;;;;23.44;82.82;99776.62;1762098;80;21253;-77
2021/08/09 04:06:27;;;;;;;16.75;11.75;;;;;;;23.47;82.22;99762.11;1753565;82;21300;-76
2021/08/09 04:09:33;;;;;;;21.77;12.13;;;;;;;23.51;82.29;99773.01;1753277;82;21280;-87
2021/08/09 04:12:39;;;;;;;24.35;12.13;;;;;;;23.58;82.13;99774.99;1753823;82;21206;-76
2021/08/09 04:15:41;;;;;;;31.42;11.75;;;;;;;23.67;81.57;99777.56;1753732;82;21193;-86
2021/08/09 04:18:35;;;;;;;25.80;11.63;;;;;;;23.75;81.16;99775.33;1753142;82;21167;-76
2021/08/09 04:21:21;;;;;;;29.12;13.43;;;;;;;23.79;80.81;99765.29;1754126;82;21830;-77
2021/08/09 04:24:13;;;;;;;20.08;12.45;;;;;;;23.82;80.88;99759.16;1754927;82;21696;-87
2021/08/09 04:27:18;;;;;;;22.52;13.00;;;;;;;23.88;80.29;99758.05;1753607;82;21336;-76
2021/08/09 04:30:24;;;;;;;23.35;11.53;;;;;;;23.89;80.29;99746.59;1753808;80;21250;-77
2021/08/09 04:33:30;;;;;;;22.50;12.20;;;;;;;23.94;80.11;99750.78;1752687;82;21292;-87
2021/08/09 04:36:36;;;;;;;19.12;12.13;;;;;;;24.06;79.81;99749.13;1751771;82;21268;-77
2021/08/09 04:39:41;;;;;;;26.48;13.28;;;;;;;24.14;79.06;99748.58;1753238;82;21284;-74
2021/08/09 04:42:47;;;;;;;26.23;12.95;;;;;;;24.23;78.45;99751.09;1751486;82;21366;-87
2021/08/09 04:45:52;;;;;;;18.42;12.70;;;;;;;24.32;78.28;99748.55;1751435;82;21195;-85
2021/08/09 04:49:01;;;;;;;22.42;12.58;;;;;;;24.36;77.60;99739.91;1753141;82;21331;-76
2021/08/09 04:52:07;;;;;;;24.07;12.73;;;;;;;24.37;77.37;99737.95;1751725;82;21307;-76
2021/08/09 04:55:14;;;;;;;17.80;11.93;;;;;;;24.40;77.17;99732.64;1751767;82;21327;-85
2021/08/09 04:58:22;;;;;;;23.05;12.35;;;;;;;24.50;77.25;99744.94;1751801;82;21316;-76
2021/08/09 05:01:28;;;;;;;26.65;12.93;;;;;;;24.64;76.66;99744.06;1746200;82;21194;-77
2021/08/09 05:04:34;;;;;;;18.67;13.32;;;;;;;24.78;76.15;99754.66;1739464;82;21209;-87
2021/08/09 05:07:41;;;;;;;24.57;13.60;;;;;;;24.89;75.56;99750.70;1763630;81;21288;-88
2021/08/09 05:10:50;;;;;;;17.05;11.20;;;;;;;25.03;75.25;99771.39;1770014;81;21908;-86
2021/08/09 05:13:58;;;;;;;17.52;11.73;;;;;;;25.19;74.21;99779.19;1728347;81;21714;-85
2021/08/09 05:17:04;;;;;;;20.30;11.08;;;;;;;25.19;74.52;99778.63;1736739;81;21305;-74
2021/08/09 05:20:11;;;;;;;26.05;11.63;;;;;;;25.28;74.37;99779.44;1750101;81;21161;-86
2021/08/09 05:23:17;;;;;;;21.68;12.23;;;;;;;25.34;73.69;99768.48;1699280;84;21197;-87
2021/08/09 05:26:22;;;;;;;25.35;13.95;;;;;;;25.42;73.12;99760.33;1740898;81;21882;-87
2021/08/09 05:29:28;;;;;;;19.55;11.90;;;;;;;25.58;72.75;99759.67;1746897;81;21822;-87
2021/08/09 05:32:33;;;;;;;30.75;13.58;;;;;;;25.78;72.04;99765.73;1753207;81;21264;-77
2021/08/09 05:35:39;;;;;;;19.55;11.55;;;;;;;25.90;71.62;99762.03;1764160;81;21193;-87
2021/08/09 05:38:45;;;;;;;25.90;13.10;;;;;;;26.06;71.06;99766.94;1754823;80;21170;-87
2021/08/09 05:41:53;;;;;;;30.20;13.28;;;;;;;26.22;70.71;99761.50;1762437;79;21275;-86
2021/08/09 05:44:58;;;;;;;23.00;11.05;;;;;;;26.37;70.32;99771.75;1770194;81;21297;-86
2021/08/09 05:48:05;;;;;;;31.40;14.43;;;;;;;26.54;69.33;99764.34;1741383;81;21161;-85
2021/08/09 05:51:13;;;;;;;20.75;12.90;;;;;;;26.57;68.46;99760.93;1755787;81;21166;-85
2021/08/09 05:54:19;;;;;;;21.17;11.05;;;;;;;26.71;69.02;99769.48;1698697;84;21543;-76
2021/08/09 05:57:28;;;;;;;33.58;13.50;;;;;;;26.81;67.61;99772.75;1739287;81;21948;-76
2021/08/09 06:00:34;;;;;;;24.95;13.53;;;;;;;26.71;67.66;99775.93;1743669;81;21314;-87
2021/08/09 06:03:41;;;;;;;22.02;13.28;;;;;;;26.65;67.98;99784.14;1754642;81;21635;-87
2021/08/09 06:06:48;;;;;;;28.95;14.38;;;;;;;26.64;68.08;99779.66;1752812;81;21236;-76
2021/08/09 06:09:56;;;;;;;31.07;14.30;;;;;;;26.74;67.94;99779.56;1761529;80;21153;-77
2021/08/09 06:13:01;;;;;;;44.15;13.78;;;;;;;26.86;67.78;99774.09;1750339;81;21256;-76
2021/08/09 06:16:09;;;;;;;27.13;14.40;;;;;;;26.96;67.43;99772.58;1748641;81;21161;-77
2021/08/09 06:19:15;;;;;;;27.37;14.78;;;;;;;27.04;67.25;99771.09;1758452;81;21264;-82
2021/08/09 06:22:21;;;;;;;27.37;14.55;;;;;;;27.13;67.20;99771.58;1753849;81;21195;-86
2021/08/09 06:25:27;;;;;;;31.85;14.38;;;;;;;27.28;66.37;99780.37;1698471;83;21698;-85
2021/08/09 06:28:35;;;;;;;28.75;14.47;;;;;;;27.37;65.43;99774.36;1748345;81;21331;-84
2021/08/09 06:31:40;;;;;;;30.30;13.75;;;;;;;27.43;65.23;99773.72;1759742;81;21280;-86
2021/08/09 06:34:47;;;;;;;31.25;14.40;;;;;;;27.53;65.04;99770.80;1752514;81;21264;-86
2021/08/09 06:37:54;;;;;;;32.08;15.58;;;;;;;27.66;64.56;99778.45;1701254;84;21852;-87
2021/08/09 06:41:00;;;;;;;33.20;14.83;;;;;;;27.82;64.26;99777.72;1754341;81;21255;-76
2021/08/09 06:44:07;;;;;;;25.88;15.20;;;;;;;28.02;63.70;99778.80;1692725;84;21270;-86
2021/08/09 06:47:13;;;;;;;35.35;15.50;;;;;;;28.12;62.87;99776.40;1675503;84;21317;-86
2021/08/09 06:50:20;;;;;;;28.52;14.90;;;;;;;28.21;63.06;99774.56;1762163;81;21303;-86
2021/08/09 06:53:26;;;;;;;38.83;15.13;;;;;;;28.31;62.43;99776.95;1751276;81;21307;-87
2021/08/09 06:56:32;;;;;;;29.23;14.33;;;;;;;28.46;62.21;99776.12;1751456;79;21318;-86
2021/08/09 06:59:38;;;;;;;30.88;14.15;;;;;;;28.60;61.01;99773.36;1751721;81;21260;-86
2021/08/09 07:02:44;;;;;;;29.92;14.75;;;;;;;28.62;61.03;99773.91;1740941;81;21765;-87
2021/08/09 07:05:52;;;;;;;25.35;13.32;;;;;;;28.64;61.48;99779.20;1740391;82;21892;-87
2021/08/09 07:08:59;;;;;;;25.50;14.03;;;;;;;28.71;61.21;99778.25;1759266;81;22022;-86
2021/08/09 07:12:06;;;;;;;32.42;16.40;;;;;;;28.75;60.16;99778.73;1761876;81;22163;-76
2021/08/09 07:15:12;;;;;;;35.08;15.98;;;;;;;29.00;60.76;99787.86;1753926;81;21778;-86
2021/08/09 07:18:18;;;;;;;28.65;15.28;;;;;;;29.00;60.76;99787.86;1759396;81;21260;-82
2021/08/09 07:21:25;;;;;;;33.70;15.10;;;;;;;29.07;60.44;99791.66;1757439;79;21149;-76
2021/08/09 07:24:30;;;;;;;32.83;15.63;;;;;;;29.18;60.88;99793.97;1761775;81;21833;-87
2021/08/09 07:27:38;;;;;;;30.17;15.72;;;;;;;29.31;59.84;99793.69;1769760;81;21188;-77
2021/08/09 07:30:44;;;;;;;35.35;15.40;;;;;;;29.45;59.58;99790.86;1770056;81;21287;-76
2021/08/09 07:33:50;;;;;;;20.20;12.25;;;;;;;29.57;59.36;99794.60;1769690;81;21342;-87
2021/08/09 07:36:54;;;;;;;31.95;12.53;;;;;;;29.67;58.45;99802.25;1743542;81;21908;-77
2021/08/09 07:40:00;;;;;;;20.95;10.98;;;;;;;29.61;57.52;99808.33;1702231;84;21350;-76
2021/08/09 07:43:06;;;;;;;26.00;10.28;;;;;;;29.58;57.23;99800.48;1758475;81;21276;-79
2021/08/09 07:46:13;;;;;;;20.17;10.58;;;;;;;29.54;56.45;99803.93;1762081;81;21291;-86
2021/08/09 07:49:19;;;;;;;21.82;11.20;;;;;;;29.47;56.84;99805.48;1736194;81;21261;-86
2021/08/09 07:52:24;;;;;;;21.60;10.53;;;;;;;29.48;57.02;99796.71;1744060;81;21805;-76
2021/08/09 07:55:29;;;;;;;21.93;11.30;;;;;;;29.58;57.04;99801.32;1753726;81;21777;-86
2021/08/09 07:58:36;;;;;;;14.87;9.78;;;;;;;29.71;57.12;99806.11;1755975;81;21296;-76
2021/08/09 08:01:42;;;;;;;27.85;10.70;;;;;;;29.82;56.98;99798.83;1753536;81;21275;-76
2021/08/09 08:04:48;;;;;;;25.30;10.70;;;;;;;29.94;56.96;99804.76;1751085;80;21760;-86
2021/08/09 08:07:54;;;;;;;17.02;9.45;;;;;;;29.98;56.71;99795.93;1752627;81;21309;-77
2021/08/09 08:11:00;;;;;;;18.00;9.08;;;;;;;30.02;55.88;99799.20;1720165;82;21177;-76
2021/08/09 08:14:05;;;;;;;18.73;8.53;;;;;;;30.03;55.10;99801.45;1753251;81;21256;-77
2021/08/09 08:17:12;;;;;;;19.17;8.28;;;;;;;30.09;54.61;99801.58;1755021;81;21193;-77
2021/08/09 08:20:20;;;;;;;18.32;7.67;;;;;;;30.21;53.78;99802.47;1693711;84;21165;-77
2021/08/09 08:23:26;;;;;;;17.42;7.35;;;;;;;30.22;54.36;99804.95;1746433;81;21325;-77
2021/08/09 08:26:32;;;;;;;19.85;7.87;;;;;;;30.20;53.58;99807.25;1752719;81;21295;-88
2021/08/09 08:29:37;;;;;;;13.68;7.10;;;;;;;30.20;52.92;99805.84;1743447;81;21283;-87
2021/08/09 08:32:42;;;;;;;14.15;7.20;;;;;;;30.17;52.01;99813.55;1706134;82;21256;-85
2021/08/09 08:35:47;;;;;;;15.18;7.25;;;;;;;30.07;52.73;99815.17;1705633;83;21306;-86
2021/08/09 08:38:56;;;;;;;15.60;6.75;;;;;;;30.06;53.23;99814.89;1704446;83;22129;-87
2021/08/09 08:42:02;;;;;;;14.55;6.58;;;;;;;30.14;52.03;99809.94;1755387;81;21212;-76
2021/08/09 08:45:09;;;;;;;12.35;7.10;;;;;;;30.29;51.71;99813.80;1763478;80;21174;-86
2021/08/09 08:48:17;;;;;;;11.12;6.83;;;;;;;30.48;51.60;99814.19;1776988;79;21253;-84
2021/08/09 08:51:23;;;;;;;16.80;7.83;;;;;;;30.75;52.87;99816.89;1729797;81;21307;-83
2021/08/09 08:54:28;;;;;;;16.52;7.20;;;;;;;31.02;52.57;99813.65;1743902;81;21291;-77
2021/08/09 08:57:33;;;;;;;10.38;7.03;;;;;;;31.20;49.87;99814.57;1754923;79;21490;-76
2021/08/09 09:00:47;;;;;;;21.07;6.65;;;;;;;31.38;48.24;99812.66;1755022;81;21299;-77
2021/08/09 09:03:53;;;;;;;13.45;5.85;;;;;;;31.53;47.87;99807.98;1715031;82;21157;-87
2021/08/09 09:07:10;;;;;;;11.60;6.33;;;;;;;31.75;46.50;99814.91;1777894;80;21753;-86
2021/08/09 09:10:31;;;;;;;14.63;5.90;;;;;;;31.78;45.89;99814.85;1734103;82;21252;-86
2021/08/09 09:13:36;;;;;;;13.13;6.85;;;;;;;31.70;46.49;99812.25;1709185;83;21260;-86
2021/08/09 09:16:52;;;;;;;18.48;6.53;;;;;;;31.59;46.91;99810.08;1720083;82;21323;-86
2021/08/09 09:19:59;;;;;;;16.12;7.08;;;;;;;31.51;47.26;99812.53;1715373;83;21275;-75
2021/08/09 09:23:20;;;;;;;17.77;6.35;;;;;;;31.42;47.79;99812.25;1727793;82;21274;-78
2021/08/09 09:26:31;;;;;;;14.83;6.85;;;;;;;31.32;47.81;99810.56;1729972;82;21361;-76
2021/08/09 09:29:43;;;;;;;12.35;7.35;;;;;;;31.25;48.17;99810.19;1714242;83;21193;-87
2021/08/09 09:32:50;;;;;;;16.82;7.35;;;;;;;31.26;49.12;99816.91;1710150;82;21402;-76
2021/08/09 09:35:57;;;;;;;16.65;8.30;;;;;;;31.34;48.56;99813.08;1706100;83;21306;-86
2021/08/09 09:39:02;;;;;;;21.27;7.20;;;;;;;31.41;48.72;99817.66;1709072;83;21552;-87
2021/08/09 09:42:10;;;;;;;15.53;7.67;;;;;;;31.48;48.09;99818.03;1716647;83;21236;-77
2021/08/09 09:45:31;;;;;;;22.15;7.83;;;;;;;31.51;47.34;99815.94;1724007;83;21339;-87
2021/08/09 09:48:45;;;;;;;22.35;7.25;;;;;;;31.53;47.48;99813.05;1699525;84;21319;-87
2021/08/09 09:51:50;;;;;;;18.35;7.12;;;;;;;31.62;47.21;99804.60;1702018;83;21165;-87
2021/08/09 09:54:55;;;;;;;11.97;6.67;;;;;;;31.79;47.01;99809.44;1706435;83;21814;-87
2021/08/09 09:58:02;;;;;;;23.80;8.20;;;;;;;31.87;47.03;99810.08;1696167;83;21871;-86
2021/08/09 10:01:11;;;;;;;17.75;7.67;;;;;;;31.86;47.11;99807.00;1713781;82;21700;-76
2021/08/09 10:04:16;;;;;;;16.32;7.45;;;;;;;31.85;47.58;99807.31;1727236;83;21259;-76
2021/08/09 10:07:25;;;;;;;16.75;7.72;;;;;;;31.74;47.61;99805.36;1734028;82;21217;-76
2021/08/09 10:10:28;;;;;;;18.77;7.10;;;;;;;31.62;47.71;99806.02;1721561;82;21857;-76
2021/08/09 10:13:33;;;;;;;17.62;7.10;;;;;;;31.56;47.30;99803.90;1747121;82;21263;-85
2021/08/09 10:16:42;;;;;;;14.90;7.47;;;;;;;31.55;48.23;99798.59;1745680;81;21212;-77
2021/08/09 10:19:48;;;;;;;14.75;7.25;;;;;;;31.56;47.84;99802.48;1720663;82;21204;-87
2021/08/09 10:23:12;;;;;;;17.37;7.97;;;;;;;31.54;47.97;99797.76;1735809;82;21248;-84
2021/08/09 10:26:30;;;;;;;16.62;8.35;;;;;;;31.48;48.67;99796.84;1726837;82;21303;-87
2021/08/09 10:29:37;;;;;;;18.48;7.37;;;;;;;31.43;48.87;99796.41;1745487;82;21142;-87
2021/08/09 10:33:03;;;;;;;16.70;6.97;;;;;;;31.41;47.17;99789.41;1723381;82;21267;-77
2021/08/09 10:36:09;;;;;;;20.55;7.10;;;;;;;31.32;48.29;99793.61;1722945;82;21797;-88
2021/08/09 10:39:15;;;;;;;19.17;7.00;;;;;;;31.15;47.45;99787.85;1733334;82;21694;-88
2021/08/09 10:42:40;;;;;;;17.77;7.47;;;;;;;31.07;47.09;99788.09;1716032;82;21299;-86
2021/08/09 10:45:51;;;;;;;24.43;12.10;;;;;;;31.03;46.60;99780.01;1722003;82;21314;-87
2021/08/09 10:48:57;;;;;;;22.70;11.45;;;;;;;31.09;46.45;99787.17;1724999;83;22279;-77
2021/08/09 10:52:06;;;;;;;17.90;9.95;;;;;;;31.19;45.74;99786.88;1686564;85;21625;-76
2021/08/09 10:55:43;;;;;;;13.40;9.23;;;;;;;31.23;45.59;99788.48;1710416;83;21259;-77
2021/08/09 10:58:58;;;;;;;15.25;8.20;;;;;;;31.23;44.52;99789.30;1708398;83;21371;-77
2021/08/09 11:02:06;;;;;;;12.93;7.75;;;;;;;31.23;44.76;99780.83;1692612;83;21168;-77
2021/08/09 11:05:28;;;;;;;15.78;8.10;;;;;;;31.39;45.79;99788.91;1712524;83;21674;-76
2021/08/09 11:08:36;;;;;;;17.07;8.33;;;;;;;31.50;44.48;99787.44;1722112;82;21198;-86
2021/08/09 11:11:46;;;;;;;14.20;7.80;;;;;;;31.63;44.66;99792.12;1722822;82;21825;-77
2021/08/09 11:15:14;;;;;;;16.02;9.25;;;;;;;31.73;45.53;99788.16;1718542;82;21162;-77
2021/08/09 11:18:21;;;;;;;24.87;12.37;;;;;;;31.85;47.69;99790.35;1719461;82;21165;-86
2021/08/09 11:21:26;;;;;;;22.93;12.53;;;;;;;31.91;49.33;99799.77;1675300;82;21193;-76
2021/08/09 11:24:41;;;;;;;20.25;10.55;;;;;;;31.92;48.71;99803.43;1716140;82;21773;-86
2021/08/09 11:28:06;;;;;;;18.65;10.53;;;;;;;31.92;49.16;99790.70;1731970;82;21205;-77
2021/08/09 11:31:11;;;;;;;23.87;9.85;;;;;;;31.90;49.32;99787.36;1732438;82;21177;-85
2021/08/09 11:34:17;;;;;;;26.02;9.75;;;;;;;31.73;49.05;99774.84;1737742;82;21280;-85
2021/08/09 11:37:23;;;;;;;17.62;10.15;;;;;;;31.57;48.09;99773.64;1713181;82;21822;-74
2021/08/09 11:40:44;;;;;;;21.23;10.13;;;;;;;31.42;47.80;99776.94;1728313;82;21288;-76
2021/08/09 11:43:50;;;;;;;22.73;10.40;;;;;;;31.32;47.38;99780.06;1708315;82;21296;-76
2021/08/09 11:46:57;;;;;;;20.20;9.60;;;;;;;31.16;47.33;99774.84;1721156;82;21272;-85
2021/08/09 11:50:04;;;;;;;15.53;9.33;;;;;;;31.04;47.85;99779.67;1729230;82;21279;-87
2021/08/09 11:53:09;;;;;;;15.55;9.70;;;;;;;30.94;48.20;99783.38;1708203;82;21316;-76
2021/08/09 11:56:30;;;;;;;16.35;9.90;;;;;;;30.91;49.17;99793.89;1718750;82;21862;-87
2021/08/09 11:59:40;;;;;;;16.02;10.93;;;;;;;30.88;48.48;99784.09;1710779;82;21570;-86
2021/08/09 12:03:17;;;;;;;18.12;11.35;;;;;;;30.82;49.13;99781.72;1721357;82;21205;-77
2021/08/09 12:06:31;;;;;;;21.20;12.10;;;;;;;30.72;49.69;99787.89;1722674;82;21216;-87
2021/08/09 12:09:47;;;;;;;24.55;12.68;;;;;;;30.54;50.53;99791.17;1700261;84;21340;-87
2021/08/09 12:12:54;;;;;;;23.00;13.75;;;;;;;30.44;51.05;99789.17;1710131;83;21715;-76
2021/08/09 12:16:18;;;;;;;24.30;14.28;;;;;;;30.38;51.51;99789.05;1702627;83;21226;-87
2021/08/09 12:19:27;;;;;;;16.62;12.13;;;;;;;30.36;51.47;99794.20;1703552;83;21137;-74
2021/08/09 12:22:39;;;;;;;17.37;13.15;;;;;;;30.35;51.68;99792.51;1702971;83;21173;-85
2021/08/09 12:25:47;;;;;;;27.42;13.20;;;;;;;30.32;51.82;99788.94;1712795;83;21343;-86
2021/08/09 12:28:58;;;;;;;21.52;12.60;;;;;;;30.31;51.89;99785.28;1710744;83;21272;-75
2021/08/09 12:32:05;;;;;;;18.05;13.10;;;;;;;30.31;51.37;99783.88;1707797;83;21287;-74
2021/08/09 12:35:11;;;;;;;23.25;12.45;;;;;;;30.31;51.60;99774.58;1721356;83;21181;-74
2021/08/09 12:38:18;;;;;;;21.57;12.25;;;;;;;30.29;51.89;99775.71;1713804;83;21367;-75
2021/08/09 12:41:33;;;;;;;17.17;11.08;;;;;;;30.28;51.92;99779.70;1699430;83;21222;-77
2021/08/09 12:44:38;;;;;;;23.02;11.08;;;;;;;30.29;51.84;99779.95;1742392;81;21188;-77
2021/08/09 12:47:44;;;;;;;19.48;13.05;;;;;;;30.31;52.59;99778.81;1750820;81;21268;-86
2021/08/09 12:50:52;;;;;;;20.27;11.57;;;;;;;30.36;53.18;99777.27;1750961;81;21211;-87
2021/08/09 12:53:58;;;;;;;27.75;11.08;;;;;;;30.39;53.38;99773.20;1740218;82;21283;-87
2021/08/09 12:57:03;;;;;;;19.57;11.35;;;;;;;30.41;52.85;99776.56;1731452;81;21318;-76
2021/08/09 13:00:09;;;;;;;33.13;12.18;;;;;;;30.39;52.97;99780.84;1751840;81;21829;-86
2021/08/09 13:03:14;;;;;;;20.97;11.10;;;;;;;30.36;53.45;99779.52;1749665;81;21198;-76
2021/08/09 13:06:19;;;;;;;25.90;11.05;;;;;;;30.38;53.55;99782.00;1742915;81;21311;-76
2021/08/09 13:09:24;;;;;;;24.92;10.75;;;;;;;30.35;53.43;99784.05;1741100;81;21244;-86
2021/08/09 13:12:30;;;;;;;25.82;10.40;;;;;;;30.35;53.12;99779.81;1758301;81;21726;-85
2021/08/09 13:15:35;;;;;;;27.55;10.53;;;;;;;30.35;52.98;99784.05;1772051;81;21185;-86
2021/08/09 13:18:42;;;;;;;23.80;10.53;;;;;;;30.34;53.22;99786.61;1771277;81;21201;-76
2021/08/09 13:21:48;;;;;;;20.62;11.85;;;;;;;30.29;53.70;99787.00;1770279;81;21320;-86
2021/08/09 13:24:53;;;;;;;27.82;11.15;;;;;;;30.26;53.49;99784.84;1771132;81;21276;-76
2021/08/09 13:28:00;;;;;;;22.80;9.63;;;;;;;30.28;53.38;99791.55;1771204;81;21145;-84
2021/08/09 13:31:05;;;;;;;25.23;11.05;;;;;;;30.26;53.26;99794.70;1769549;81;21610;-77
2021/08/09 13:34:12;;;;;;;26.00;10.58;;;;;;;30.26;53.77;99790.48;1770582;81;21757;-85
2021/08/09 13:37:18;;;;;;;20.43;10.53;;;;;;;30.29;53.79;99786.16;1769488;81;21303;-87
2021/08/09 13:40:23;;;;;;;19.02;11.08;;;;;;;30.32;54.28;99787.53;1770859;81;21877;-76
2021/08/09 13:43:30;;;;;;;21.12;11.10;;;;;;;30.36;53.93;99778.10;1769922;81;21284;-85
2021/08/09 13:46:35;;;;;;;31.35;11.97;;;;;;;30.40;53.13;99781.13;1769955;81;21291;-77
2021/08/09 13:49:41;;;;;;;22.58;12.25;;;;;;;30.42;53.27;99779.63;1770849;81;21296;-86
2021/08/09 13:52:47;;;;;;;22.10;10.90;;;;;;;30.46;53.58;99781.23;1763009;81;21280;-76
2021/08/09 13:55:52;;;;;;;23.75;11.12;;;;;;;30.48;53.32;99781.16;1771205;81;21311;-76
2021/08/09 13:58:58;;;;;;;21.45;10.35;;;;;;;30.50;53.25;99785.09;1771885;81;21264;-86
2021/08/09 14:02:04;;;;;;;18.90;10.35;;;;;;;30.54;53.24;99788.94;1770941;81;21193;-76
2021/08/09 14:05:10;;;;;;;22.27;10.60;;;;;;;30.57;53.07;99787.44;1771207;81;21814;-86
2021/08/09 14:08:16;;;;;;;24.18;10.45;;;;;;;30.60;53.71;99787.64;1772055;81;21264;-76
2021/08/09 14:11:21;;;;;;;23.30;11.08;;;;;;;30.62;53.49;99785.31;1776276;80;21189;-77
2021/08/09 14:14:27;;;;;;;23.07;11.18;;;;;;;30.64;53.65;99777.38;1785905;80;21276;-76
2021/08/09 14:17:33;;;;;;;22.45;10.65;;;;;;;30.67;53.18;99776.70;1785794;80;21265;-86
2021/08/09 14:20:33;;;;;;;19.07;9.88;;;;;;;30.66;53.71;99782.69;1784867;80;21307;-76
2021/08/09 14:23:39;;;;;;;19.70;10.50;;;;;;;30.63;53.02;99779.09;1785738;80;21260;-76
2021/08/09 14:26:46;;;;;;;20.48;10.32;;;;;;;30.62;53.18;99780.25;1784960;80;21295;-76